Time;durP1;ratioP1;P1;durP2;ratioP2;P2;SDS_P1;SDS_P2;PMS_P1;PMS_P2;Temp;Humidity;BMP_temperature;BMP_pressure;BME280_temperature;BME280_humidity;BME280_pressure;Samples;Min_cycle;Max_cycle;Signal;HPM_P1;HPM_P2
2023/06/11 00:00:05;;;;;;;15.73;8.02;;;16.90;99.90;;;;;;5034957;28;20037;-27
2023/06/11 00:02:33;;;;;;;15.32;7.25;;;16.90;99.90;;;;;;5034726;28;20053;-27
2023/06/11 00:05:03;;;;;;;14.25;7.30;;;16.90;99.90;;;;;;5033234;28;20056;-26
2023/06/11 00:07:30;;;;;;;14.55;7.13;;;16.90;99.90;;;;;;5034654;28;20081;-27
2023/06/11 00:09:56;;;;;;;12.18;7.30;;;16.90;99.90;;;;;;5033594;28;20084;-27
2023/06/11 00:12:21;;;;;;;13.15;6.68;;;16.90;99.90;;;;;;5032772;28;20139;-27
2023/06/11 00:14:47;;;;;;;15.23;6.97;;;17.00;99.90;;;;;;5034209;28;20049;-26
2023/06/11 00:17:15;;;;;;;14.57;7.82;;;17.00;99.90;;;;;;5017537;28;20041;-27
2023/06/11 00:19:41;;;;;;;15.45;6.80;;;16.90;99.90;;;;;;5034019;28;20476;-27
2023/06/11 00:22:08;;;;;;;9.82;6.55;;;16.90;99.90;;;;;;5034072;28;20057;-27
2023/06/11 00:24:34;;;;;;;16.52;7.13;;;16.90;99.90;;;;;;5033052;28;20053;-27
2023/06/11 00:27:01;;;;;;;10.05;6.68;;;16.90;99.90;;;;;;5034010;28;20084;-26
2023/06/11 00:29:28;;;;;;;11.77;7.03;;;16.90;99.90;;;;;;5034226;28;20045;-27
2023/06/11 00:31:54;;;;;;;12.48;6.00;;;16.90;99.90;;;;;;5033823;28;20103;-27
2023/06/11 00:34:20;;;;;;;9.57;6.07;;;16.90;99.90;;;;;;5033927;28;20096;-26
2023/06/11 00:36:46;;;;;;;12.68;6.15;;;16.90;99.90;;;;;;5032970;28;20053;-26
2023/06/11 00:39:12;;;;;;;11.27;5.50;;;16.90;99.90;;;;;;5034562;28;20080;-26
2023/06/11 00:41:39;;;;;;;17.90;8.20;;;16.90;99.90;;;;;;5016395;28;20107;-27
2023/06/11 00:44:06;;;;;;;10.07;6.50;;;16.90;99.90;;;;;;5033781;28;20103;-26
2023/06/11 00:46:32;;;;;;;18.00;6.93;;;17.00;99.90;;;;;;5033733;28;20056;-26
2023/06/11 00:48:58;;;;;;;15.70;6.18;;;17.00;99.90;;;;;;5033701;28;20057;-26
2023/06/11 00:51:25;;;;;;;10.77;6.47;;;17.10;99.90;;;;;;5033458;28;20519;-26
2023/06/11 00:53:53;;;;;;;8.98;5.80;;;17.10;99.90;;;;;;5032685;28;20045;-26
2023/06/11 00:56:19;;;;;;;11.52;7.00;;;17.10;99.90;;;;;;5033870;28;20049;-26
2023/06/11 00:58:47;;;;;;;15.10;7.15;;;17.10;99.90;;;;;;5032604;28;20052;-26
2023/06/11 01:01:17;;;;;;;10.10;6.22;;;17.10;99.90;;;;;;5033483;28;20041;-26
2023/06/11 01:03:43;;;;;;;12.23;6.90;;;17.10;99.90;;;;;;5032600;28;20050;-27
2023/06/11 01:06:17;;;;;;;13.35;6.60;;;17.10;99.90;;;;;;5032921;28;20063;-27
2023/06/11 01:08:44;;;;;;;11.63;6.07;;;17.10;99.90;;;;;;5033609;28;20045;-27
2023/06/11 01:11:21;;;;;;;10.13;6.57;;;17.00;99.90;;;;;;5033474;28;20050;-27
2023/06/11 01:13:47;;;;;;;7.70;6.28;;;17.00;99.90;;;;;;5034609;28;20049;-27
2023/06/11 01:16:25;;;;;;;9.15;5.85;;;17.00;99.90;;;;;;5037555;28;20057;-28
2023/06/11 01:19:03;;;;;;;16.38;7.47;;;17.00;99.90;;;;;;5037833;28;20050;-27
2023/06/11 01:21:38;;;;;;;12.02;6.65;;;17.00;99.90;;;;;;5037396;28;20045;-28
2023/06/11 01:24:17;;;;;;;11.07;6.60;;;17.00;99.90;;;;;;5037984;28;20056;-27
2023/06/11 01:27:10;;;;;;;15.10;8.27;;;16.90;99.90;;;;;;5037288;28;20061;-28
2023/06/11 01:29:45;;;;;;;10.13;6.78;;;16.90;99.90;;;;;;5037414;28;20088;-27
2023/06/11 01:32:11;;;;;;;9.57;6.28;;;16.80;99.90;;;;;;5036123;28;20469;-26
2023/06/11 01:34:41;;;;;;;9.20;6.32;;;16.70;99.90;;;;;;5037769;28;20128;-27
2023/06/11 01:37:11;;;;;;;9.55;6.85;;;16.70;99.90;;;;;;5035950;28;20108;-27
2023/06/11 01:39:38;;;;;;;9.82;6.60;;;16.60;99.90;;;;;;5036915;28;20081;-27
2023/06/11 01:42:05;;;;;;;12.93;8.60;;;16.60;99.90;;;;;;5035831;28;20053;-27
2023/06/11 01:44:32;;;;;;;12.52;6.93;;;16.50;99.90;;;;;;5035916;28;20050;-26
2023/06/11 01:46:58;;;;;;;13.75;7.28;;;16.50;99.90;;;;;;5036989;28;20057;-26
2023/06/11 01:49:24;;;;;;;13.50;6.57;;;16.40;99.90;;;;;;5037008;28;20047;-26
2023/06/11 01:51:50;;;;;;;11.55;7.03;;;16.30;99.90;;;;;;5035944;28;20041;-27
2023/06/11 01:54:17;;;;;;;15.35;7.10;;;16.20;99.90;;;;;;5037366;28;20050;-27
2023/06/11 01:56:43;;;;;;;11.05;7.13;;;16.20;99.90;;;;;;5036556;28;20489;-26
2023/06/11 01:59:12;;;;;;;9.35;7.07;;;16.20;99.90;;;;;;5019205;28;20085;-26
2023/06/11 02:01:38;;;;;;;10.13;7.38;;;16.10;99.90;;;;;;5037531;28;20049;-27
2023/06/11 02:04:04;;;;;;;10.48;7.07;;;16.10;99.90;;;;;;5036944;28;20072;-28
2023/06/11 02:06:31;;;;;;;11.82;7.45;;;16.10;99.90;;;;;;5036657;28;20200;-26
2023/06/11 02:08:56;;;;;;;12.18;7.22;;;16.00;99.90;;;;;;5035650;28;20053;-27
2023/06/11 02:11:22;;;;;;;11.23;7.95;;;16.00;99.90;;;;;;5035845;28;20496;-26
2023/06/11 02:13:48;;;;;;;10.02;7.32;;;16.00;99.90;;;;;;5035307;28;20144;-26
2023/06/11 02:16:14;;;;;;;14.70;8.20;;;16.00;99.90;;;;;;5036454;28;20134;-27
2023/06/11 02:18:39;;;;;;;11.50;7.55;;;16.00;99.90;;;;;;5036382;28;20049;-26
2023/06/11 02:21:05;;;;;;;10.63;7.50;;;16.00;99.90;;;;;;5037100;28;20044;-26
2023/06/11 02:23:31;;;;;;;12.50;7.70;;;16.00;99.90;;;;;;5035926;28;20448;-28
2023/06/11 02:25:56;;;;;;;13.35;9.30;;;15.90;99.90;;;;;;5034946;28;20045;-26
2023/06/11 02:28:22;;;;;;;13.10;7.70;;;15.90;99.90;;;;;;5018543;28;20042;-27
2023/06/11 02:30:48;;;;;;;13.90;8.25;;;15.80;99.90;;;;;;5036451;28;20212;-26
2023/06/11 02:33:13;;;;;;;13.63;8.38;;;15.80;99.90;;;;;;5036441;28;20394;-26
2023/06/11 02:35:39;;;;;;;11.68;8.70;;;15.80;99.90;;;;;;5036345;28;20136;-26
2023/06/11 02:38:05;;;;;;;11.70;8.55;;;15.80;99.90;;;;;;5034870;28;20046;-27
2023/06/11 02:40:30;;;;;;;13.35;9.00;;;15.80;99.90;;;;;;5036478;28;20052;-26
2023/06/11 02:42:56;;;;;;;13.23;8.13;;;15.80;99.90;;;;;;5034790;28;20045;-26
2023/06/11 02:45:22;;;;;;;11.57;8.23;;;15.80;99.90;;;;;;5035574;28;20367;-26
2023/06/11 02:47:47;;;;;;;10.95;8.90;;;15.80;99.90;;;;;;5035925;28;20064;-26
2023/06/11 02:50:13;;;;;;;10.80;8.63;;;15.80;99.90;;;;;;5034718;28;20045;-27
2023/06/11 02:52:39;;;;;;;14.27;9.25;;;15.80;99.90;;;;;;5035790;28;20042;-26
2023/06/11 02:55:05;;;;;;;11.90;8.43;;;15.80;99.90;;;;;;5034510;28;20049;-26
2023/06/11 02:57:31;;;;;;;11.93;8.88;;;15.80;99.90;;;;;;5034756;28;20041;-27
2023/06/11 02:59:57;;;;;;;9.95;8.52;;;15.90;99.90;;;;;;5035531;28;20124;-27
2023/06/11 03:02:22;;;;;;;15.48;9.10;;;15.90;99.90;;;;;;5034633;28;20045;-27
2023/06/11 03:04:48;;;;;;;12.30;8.95;;;15.90;99.90;;;;;;5036120;28;20047;-27
2023/06/11 03:07:14;;;;;;;11.80;8.18;;;15.90;99.90;;;;;;5035470;28;20048;-27
2023/06/11 03:09:39;;;;;;;10.45;8.00;;;16.00;99.90;;;;;;5035447;28;20124;-26
2023/06/11 03:12:06;;;;;;;15.90;8.85;;;16.00;99.90;;;;;;5035396;28;20042;-27
2023/06/11 03:14:32;;;;;;;12.32;8.95;;;16.00;99.90;;;;;;5035394;28;20122;-26
2023/06/11 03:16:58;;;;;;;9.80;8.35;;;15.90;99.90;;;;;;5035595;28;20080;-27
2023/06/11 03:19:23;;;;;;;10.60;8.60;;;15.90;99.90;;;;;;5018535;28;20435;-26
2023/06/11 03:21:49;;;;;;;13.43;8.88;;;15.90;99.90;;;;;;5034839;28;20049;-28
2023/06/11 03:24:15;;;;;;;9.65;8.40;;;15.90;99.90;;;;;;5034125;28;20099;-27
2023/06/11 03:26:40;;;;;;;10.35;8.55;;;15.90;99.90;;;;;;5035695;28;20061;-26
2023/06/11 03:29:06;;;;;;;12.77;9.10;;;15.80;99.90;;;;;;5033929;28;20041;-26
2023/06/11 03:31:32;;;;;;;12.68;8.80;;;15.80;99.90;;;;;;5035149;28;20057;-27
2023/06/11 03:33:58;;;;;;;10.65;8.80;;;15.80;99.90;;;;;;5034789;28;20148;-27
2023/06/11 03:36:24;;;;;;;11.40;9.15;;;15.80;99.90;;;;;;5034922;28;20046;-27
2023/06/11 03:38:50;;;;;;;13.63;9.02;;;15.80;99.90;;;;;;5033746;28;20063;-27
2023/06/11 03:41:16;;;;;;;15.80;9.70;;;15.80;99.90;;;;;;5034798;28;20041;-26
2023/06/11 03:43:42;;;;;;;12.95;9.50;;;15.80;99.90;;;;;;5034810;28;20053;-27
2023/06/11 03:46:07;;;;;;;12.38;9.23;;;15.90;99.90;;;;;;5035036;28;20049;-26
2023/06/11 03:48:33;;;;;;;10.68;9.00;;;15.90;99.90;;;;;;5033788;28;20473;-26
2023/06/11 03:50:59;;;;;;;12.15;9.18;;;16.00;99.90;;;;;;5033723;28;20081;-27
2023/06/11 03:53:25;;;;;;;10.00;8.65;;;16.10;99.90;;;;;;5034793;28;20397;-26
2023/06/11 03:55:51;;;;;;;8.57;7.75;;;16.10;99.90;;;;;;5034503;28;20124;-27
2023/06/11 03:58:16;;;;;;;11.40;8.98;;;16.20;99.90;;;;;;5034417;28;20099;-27
2023/06/11 04:00:42;;;;;;;12.45;9.05;;;16.20;99.90;;;;;;5034416;28;20038;-26
2023/06/11 04:03:07;;;;;;;11.65;8.07;;;16.30;99.90;;;;;;5034471;28;20448;-27
2023/06/11 04:05:37;;;;;;;10.85;8.43;;;16.30;99.90;;;;;;5034404;28;20394;-26
2023/06/11 04:08:03;;;;;;;10.07;8.55;;;16.30;99.90;;;;;;5033115;28;20053;-27
2023/06/11 04:10:29;;;;;;;10.45;8.43;;;16.40;99.90;;;;;;5034212;28;20512;-27
2023/06/11 04:12:55;;;;;;;9.82;8.48;;;16.40;99.90;;;;;;5034285;28;20054;-27
2023/06/11 04:15:21;;;;;;;9.00;7.97;;;16.50;99.90;;;;;;5034259;28;20140;-26
2023/06/11 04:17:47;;;;;;;13.68;8.70;;;16.50;99.90;;;;;;5033235;28;20073;-27
2023/06/11 04:20:12;;;;;;;14.38;8.77;;;16.60;99.90;;;;;;5034095;28;20449;-28
2023/06/11 04:22:38;;;;;;;15.40;9.20;;;16.70;99.90;;;;;;5034055;28;20049;-26
2023/06/11 04:25:06;;;;;;;9.52;8.52;;;16.80;99.90;;;;;;5033959;28;20045;-27
2023/06/11 04:27:33;;;;;;;9.82;8.20;;;16.80;99.90;;;;;;5034037;28;20049;-27
2023/06/11 04:30:00;;;;;;;11.73;9.35;;;16.90;99.90;;;;;;5034044;28;20111;-27
2023/06/11 04:32:26;;;;;;;11.35;8.30;;;16.90;99.90;;;;;;5034212;28;20076;-26
2023/06/11 04:34:53;;;;;;;11.68;8.18;;;17.00;99.90;;;;;;5033432;28;20060;-27
2023/06/11 04:37:19;;;;;;;12.13;9.07;;;17.10;99.90;;;;;;5034374;28;20053;-27
2023/06/11 04:39:45;;;;;;;11.65;8.20;;;17.10;99.90;;;;;;5032720;28;20128;-27
2023/06/11 04:42:14;;;;;;;9.82;8.13;;;17.20;99.90;;;;;;5016389;28;20465;-26
2023/06/11 04:44:40;;;;;;;9.52;8.35;;;17.30;99.90;;;;;;5034276;28;20084;-27
2023/06/11 04:47:06;;;;;;;9.82;8.65;;;17.30;99.90;;;;;;5033838;28;20131;-27
2023/06/11 04:49:32;;;;;;;11.13;7.90;;;17.40;99.90;;;;;;5033648;28;20096;-27
2023/06/11 04:51:58;;;;;;;10.07;8.32;;;17.50;99.90;;;;;;5033666;28;20057;-27
2023/06/11 04:54:24;;;;;;;8.55;7.65;;;17.60;99.90;;;;;;5032679;28;20469;-27
2023/06/11 04:56:50;;;;;;;10.63;8.05;;;17.60;99.90;;;;;;5033540;28;20046;-27
2023/06/11 04:59:16;;;;;;;9.57;8.57;;;17.70;99.90;;;;;;5033527;28;20055;-26
2023/06/11 05:01:48;;;;;;;12.88;8.05;;;17.80;99.90;;;;;;5016133;28;20134;-27
2023/06/11 05:04:14;;;;;;;11.83;7.97;;;18.00;99.90;;;;;;5034145;28;20481;-27
2023/06/11 05:06:44;;;;;;;10.27;8.07;;;18.70;99.90;;;;;;5033454;28;20045;-27
2023/06/11 05:09:14;;;;;;;8.40;7.28;;;19.50;1.00;;;;;;5033327;28;20138;-27
2023/06/11 05:11:43;;;;;;;11.05;7.72;;;20.00;99.90;;;;;;5015904;28;20041;-27
2023/06/11 05:14:10;;;;;;;9.60;7.43;;;20.20;99.90;;;;;;5032210;28;20404;-28
2023/06/11 05:16:35;;;;;;;12.02;8.00;;;20.00;99.90;;;;;;5015965;28;20378;-27
2023/06/11 05:19:02;;;;;;;11.90;7.32;;;19.80;99.90;;;;;;5032766;28;20096;-27
2023/06/11 05:21:29;;;;;;;12.35;7.50;;;19.70;99.90;;;;;;5032150;28;20103;-25
2023/06/11 05:23:56;;;;;;;9.68;8.05;;;20.20;99.90;;;;;;5032386;28;20107;-27
2023/06/11 05:26:32;;;;;;;11.10;7.57;;;20.90;99.90;;;;;;5032313;28;20132;-27
2023/06/11 05:28:58;;;;;;;9.50;7.45;;;21.50;1.00;;;;;;5033931;28;20057;-27
2023/06/11 05:31:23;;;;;;;13.65;8.32;;;22.10;99.90;;;;;;5032098;28;20045;-27
2023/06/11 05:33:50;;;;;;;9.15;6.97;;;22.40;99.90;;;;;;5033504;28;20061;-27
2023/06/11 05:36:16;;;;;;;7.72;6.93;;;22.80;1.00;;;;;;5033223;28;20100;-26
2023/06/11 05:38:43;;;;;;;11.90;7.25;;;23.10;99.90;;;;;;5033314;28;20129;-27
2023/06/11 05:41:09;;;;;;;8.98;7.40;;;23.50;99.90;;;;;;5033063;28;20084;-27
2023/06/11 05:43:35;;;;;;;11.43;7.60;;;23.70;1.00;;;;;;5033101;28;20108;-27
2023/06/11 05:46:01;;;;;;;12.48;7.35;;;24.00;99.90;;;;;;5016102;28;20042;-27
2023/06/11 05:48:28;;;;;;;12.20;7.22;;;24.30;99.90;;;;;;5033214;28;20072;-27
2023/06/11 05:50:54;;;;;;;8.63;7.28;;;24.50;99.90;;;;;;5033180;28;20045;-27
2023/06/11 05:53:20;;;;;;;10.02;7.03;;;24.60;99.90;;;;;;5033635;28;20492;-28
2023/06/11 05:55:46;;;;;;;9.30;6.72;;;24.90;99.90;;;;;;5031900;28;20049;-28
2023/06/11 05:58:12;;;;;;;10.48;7.28;;;25.00;6.80;;;;;;5033014;28;20076;-27
2023/06/11 06:00:38;;;;;;;9.65;7.38;;;25.30;1.00;;;;;;5035782;28;20049;-27
2023/06/11 06:03:04;;;;;;;9.10;7.10;;;25.20;99.90;;;;;;5036594;28;20377;-27
2023/06/11 06:05:30;;;;;;;8.05;7.00;;;25.30;99.90;;;;;;5035649;28;20052;-27
2023/06/11 06:07:56;;;;;;;9.73;6.65;;;25.50;99.90;;;;;;5037168;28;20046;-28
2023/06/11 06:10:22;;;;;;;13.73;7.47;;;25.70;99.60;;;;;;5036506;28;20046;-27
2023/06/11 06:12:47;;;;;;;8.32;6.88;;;25.60;1.00;;;;;;5036979;28;20393;-27
2023/06/11 06:15:13;;;;;;;9.38;6.43;;;25.90;1.00;;;;;;5036387;28;20179;-27
2023/06/11 06:17:39;;;;;;;7.88;7.07;;;26.10;1.00;;;;;;5036442;28;20136;-27
2023/06/11 06:20:06;;;;;;;8.77;7.43;;;26.20;1.00;;;;;;5034857;28;20041;-27
2023/06/11 06:22:31;;;;;;;10.98;6.82;;;26.10;99.90;;;;;;5036819;28;20051;-27
2023/06/11 06:24:57;;;;;;;10.10;6.70;;;26.20;99.90;;;;;;5002689;28;20041;-27
2023/06/11 06:27:23;;;;;;;9.52;7.25;;;26.30;99.90;;;;;;5037129;28;20378;-27
2023/06/11 06:29:49;;;;;;;9.35;6.72;;;26.60;99.90;;;;;;5036238;28;20128;-28
2023/06/11 06:32:15;;;;;;;9.20;6.90;;;26.70;99.90;;;;;;5034997;28;20060;-27
2023/06/11 06:34:42;;;;;;;8.73;6.72;;;26.60;99.90;;;;;;5035856;28;20049;-27
2023/06/11 06:37:09;;;;;;;8.15;7.20;;;26.60;72.90;;;;;;5036119;28;20045;-27
2023/06/11 06:39:35;;;;;;;9.40;6.22;;;26.90;92.50;;;;;;5035801;28;20120;-28
2023/06/11 06:42:00;;;;;;;10.88;6.88;;;27.20;23.40;;;;;;5035998;28;20088;-27
2023/06/11 06:44:26;;;;;;;9.65;7.05;;;27.30;1.00;;;;;;5036799;28;20068;-28
2023/06/11 06:46:53;;;;;;;9.88;6.80;;;27.40;1.00;;;;;;5035624;28;20505;-27
2023/06/11 06:49:20;;;;;;;8.55;6.50;;;27.20;1.00;;;;;;5036018;28;20124;-27
2023/06/11 06:51:47;;;;;;;9.35;6.70;;;27.20;1.00;;;;;;5035788;28;20054;-27
2023/06/11 06:54:13;;;;;;;9.77;6.95;;;27.30;1.00;;;;;;5034510;28;20052;-27
2023/06/11 06:56:38;;;;;;;8.38;6.95;;;27.30;1.00;;;;;;5034685;28;20055;-27
2023/06/11 06:59:04;;;;;;;7.85;6.80;;;27.50;1.00;;;;;;5034482;28;20049;-27
2023/06/11 07:01:30;;;;;;;10.55;6.63;;;27.60;1.00;;;;;;5034312;28;19996;-27
2023/06/11 07:03:56;;;;;;;10.40;6.97;;;27.70;1.00;;;;;;5035551;28;20076;-28
2023/06/11 07:06:21;;;;;;;13.60;6.90;;;27.90;1.00;;;;;;5035851;28;20061;-27
2023/06/11 07:08:47;;;;;;;7.65;6.90;;;28.00;99.90;;;;;;5018072;28;20042;-28
2023/06/11 07:11:15;;;;;;;9.48;6.30;;;27.90;99.90;;;;;;5035156;28;20049;-29
2023/06/11 07:13:40;;;;;;;8.75;6.63;;;28.00;99.90;;;;;;5035077;28;20575;-28
2023/06/11 07:16:07;;;;;;;12.10;6.97;;;28.10;99.90;;;;;;5035497;28;20128;-27
2023/06/11 07:18:33;;;;;;;10.35;7.10;;;28.20;99.90;;;;;;5035320;28;20489;-28
2023/06/11 07:20:59;;;;;;;7.80;6.15;;;28.20;99.90;;;;;;5035207;28;20045;-27
2023/06/11 07:23:25;;;;;;;7.97;7.18;;;28.10;99.90;;;;;;5035244;28;20045;-28
2023/06/11 07:25:51;;;;;;;8.25;6.13;;;28.10;99.90;;;;;;5035817;28;20048;-27
2023/06/11 07:28:17;;;;;;;8.48;6.43;;;28.30;99.90;;;;;;5035381;28;20041;-27
2023/06/11 07:30:43;;;;;;;10.32;7.00;;;28.40;99.90;;;;;;5035087;28;20041;-27
2023/06/11 07:33:08;;;;;;;8.95;6.55;;;28.50;99.90;;;;;;5035032;28;20144;-26
2023/06/11 07:35:34;;;;;;;7.15;6.10;;;28.60;99.90;;;;;;5035308;28;20049;-27
2023/06/11 07:38:00;;;;;;;6.80;5.72;;;28.70;99.90;;;;;;5033807;28;20052;-28
2023/06/11 07:40:26;;;;;;;7.75;6.60;;;28.70;99.90;;;;;;5034863;28;20435;-27
2023/06/11 07:42:51;;;;;;;8.65;6.82;;;28.70;99.90;;;;;;5034840;28;20049;-27
2023/06/11 07:45:17;;;;;;;8.23;5.88;;;28.70;99.90;;;;;;5034527;28;20052;-28
2023/06/11 07:47:43;;;;;;;10.02;7.45;;;28.90;99.90;;;;;;5033674;28;20085;-27
2023/06/11 07:50:10;;;;;;;8.30;6.30;;;28.80;99.90;;;;;;5033573;28;20048;-28
2023/06/11 07:52:36;;;;;;;7.75;6.75;;;28.80;99.90;;;;;;5033481;28;20053;-27
2023/06/11 07:55:02;;;;;;;7.85;7.07;;;28.70;99.90;;;;;;5034652;28;20459;-27
2023/06/11 07:57:28;;;;;;;7.05;6.35;;;28.60;99.90;;;;;;5033409;28;20042;-29
2023/06/11 07:59:54;;;;;;;8.60;6.85;;;28.60;99.90;;;;;;5034458;28;20060;-27
2023/06/11 08:02:20;;;;;;;8.02;6.40;;;28.70;99.90;;;;;;5017922;28;20049;-27
2023/06/11 08:04:45;;;;;;;11.30;6.95;;;28.70;99.90;;;;;;5034446;28;20052;-27
2023/06/11 08:07:12;;;;;;;6.80;6.05;;;29.00;99.90;;;;;;5033705;28;20128;-27
2023/06/11 08:09:38;;;;;;;9.93;6.90;;;29.40;99.90;;;;;;5034944;28;20496;-27
2023/06/11 08:12:05;;;;;;;7.00;6.18;;;29.50;99.90;;;;;;5034315;28;20045;-28
2023/06/11 08:14:33;;;;;;;7.63;6.60;;;29.80;99.90;;;;;;5033988;28;20554;-28
2023/06/11 08:16:59;;;;;;;10.38;6.63;;;29.80;99.90;;;;;;5034822;28;20064;-27
2023/06/11 08:19:26;;;;;;;7.38;6.15;;;29.80;99.90;;;;;;5034082;28;20049;-27
2023/06/11 08:21:53;;;;;;;7.70;6.43;;;30.00;99.90;;;;;;5033134;28;20046;-27
2023/06/11 08:24:21;;;;;;;8.52;6.30;;;29.90;99.90;;;;;;5033196;28;20390;-28
2023/06/11 08:26:47;;;;;;;8.68;6.43;;;30.30;99.90;;;;;;5034896;28;20053;-27
2023/06/11 08:29:13;;;;;;;6.95;6.07;;;30.30;99.90;;;;;;5034567;28;20057;-28
2023/06/11 08:31:39;;;;;;;8.55;6.22;;;30.20;91.50;;;;;;5032861;28;20045;-27
2023/06/11 08:34:04;;;;;;;6.55;5.43;;;30.10;99.90;;;;;;5034572;28;20064;-27
2023/06/11 08:36:31;;;;;;;9.85;6.57;;;30.30;99.90;;;;;;5034730;28;20128;-27
2023/06/11 08:38:57;;;;;;;8.18;6.90;;;30.50;99.90;;;;;;5033562;28;20397;-28
2023/06/11 08:41:23;;;;;;;7.15;6.25;;;30.60;99.90;;;;;;5033781;28;20124;-27
2023/06/11 08:43:49;;;;;;;8.70;6.68;;;30.80;99.50;;;;;;5033526;28;20575;-27
2023/06/11 08:46:15;;;;;;;7.68;6.00;;;30.60;91.70;;;;;;5033470;28;20493;-27
2023/06/11 08:48:43;;;;;;;8.63;6.30;;;30.80;99.90;;;;;;5033743;28;20046;-28
2023/06/11 08:51:10;;;;;;;7.05;6.07;;;30.90;87.10;;;;;;5033679;28;20107;-27
2023/06/11 08:53:37;;;;;;;8.32;6.05;;;30.90;99.20;;;;;;5033736;28;20409;-28
2023/06/11 08:56:05;;;;;;;7.93;6.22;;;31.20;93.10;;;;;;5033719;28;20049;-28
2023/06/11 08:58:33;;;;;;;9.10;6.38;;;31.10;69.00;;;;;;5033534;28;20049;-28
2023/06/11 09:00:59;;;;;;;8.93;6.28;;;;;;;;;;5034083;28;20095;-28
2023/06/11 09:03:25;;;;;;;7.05;6.13;;;31.80;95.00;;;;;;5032331;28;20069;-28
2023/06/11 09:05:51;;;;;;;8.20;6.20;;;32.00;94.10;;;;;;5033590;28;20088;-28
2023/06/11 09:08:17;;;;;;;6.82;5.63;;;32.10;90.20;;;;;;5033562;28;20049;-27
2023/06/11 09:10:50;;;;;;;7.30;6.60;;;32.30;97.90;;;;;;5033555;28;20119;-27
2023/06/11 09:13:17;;;;;;;9.52;6.03;;;32.00;30.60;;;;;;5033515;28;20046;-28
2023/06/11 09:15:55;;;;;;;6.65;5.70;;;32.40;66.50;;;;;;5033475;28;20049;-28
2023/06/11 09:18:25;;;;;;;7.85;5.90;;;32.50;69.80;;;;;;5033446;28;20045;-28
2023/06/11 09:20:57;;;;;;;11.75;6.38;;;32.50;38.90;;;;;;5033661;28;20381;-29
2023/06/11 09:23:28;;;;;;;6.90;5.80;;;32.70;60.40;;;;;;5032132;28;20133;-29
2023/06/11 09:25:55;;;;;;;6.28;5.68;;;32.90;51.40;;;;;;5032280;28;20041;-28
2023/06/11 09:28:31;;;;;;;9.93;5.75;;;32.60;26.50;;;;;;5033210;28;20369;-28
2023/06/11 09:30:58;;;;;;;7.97;5.82;;;32.80;53.70;;;;;;5032418;28;20544;-28
2023/06/11 09:33:25;;;;;;;7.00;5.43;;;33.00;44.40;;;;;;5033477;28;20060;-28
2023/06/11 09:35:52;;;;;;;6.03;5.28;;;33.10;47.20;;;;;;5035856;28;20053;-28
2023/06/11 09:38:18;;;;;;;6.53;5.93;;;33.30;45.70;;;;;;5036277;28;20512;-28
2023/06/11 09:40:46;;;;;;;5.93;5.38;;;33.40;61.40;;;;;;5037659;28;20112;-28
2023/06/11 09:43:13;;;;;;;8.35;5.22;;;33.50;51.60;;;;;;5037126;28;20143;-28
2023/06/11 09:45:39;;;;;;;5.82;5.22;;;33.50;53.60;;;;;;5037140;28;20057;-27
2023/06/11 09:48:05;;;;;;;6.43;5.07;;;33.50;43.30;;;;;;5037592;28;20056;-27
2023/06/11 09:50:33;;;;;;;5.97;5.38;;;33.40;53.00;;;;;;5036048;28;20382;-28
2023/06/11 09:53:02;;;;;;;9.07;4.95;;;33.50;68.70;;;;;;5036560;28;20432;-28
2023/06/11 09:55:34;;;;;;;5.53;5.00;;;33.70;66.30;;;;;;5035966;28;20049;-28
2023/06/11 09:58:01;;;;;;;9.00;5.63;;;33.50;60.20;;;;;;5036620;28;20507;-28
2023/06/11 10:00:27;;;;;;;7.47;4.93;;;34.00;87.00;;;;;;5035597;28;20045;-28
2023/06/11 10:02:53;;;;;;;9.30;5.25;;;34.00;64.30;;;;;;5035476;28;20100;-29
2023/06/11 10:05:20;;;;;;;6.28;5.32;;;34.20;87.50;;;;;;5037012;28;20049;-28
2023/06/11 10:08:25;;;;;;;5.43;4.90;;;34.20;78.30;;;;;;5036860;28;20049;-27
2023/06/11 10:10:56;;;;;;;9.95;4.80;;;34.10;65.10;;;;;;4998613;28;20046;-28
2023/06/11 10:13:34;;;;;;;7.13;4.90;;;34.30;90.00;;;;;;5033345;28;20140;-29
2023/06/11 10:16:07;;;;;;;7.43;4.97;;;34.30;86.30;;;;;;5036548;28;20481;-28
2023/06/11 10:18:33;;;;;;;14.73;5.68;;;34.20;76.40;;;;;;5036812;28;20496;-28
2023/06/11 10:21:05;;;;;;;5.65;4.93;;;34.40;87.70;;;;;;5035456;28;20041;-28
2023/06/11 10:23:54;;;;;;;7.63;4.50;;;34.20;95.70;;;;;;5036248;28;20485;-28
2023/06/11 10:26:19;;;;;;;7.90;4.68;;;34.30;99.90;;;;;;5029450;28;20107;-28
2023/06/11 10:28:51;;;;;;;5.32;4.50;;;34.50;99.90;;;;;;5018877;28;20045;-28
2023/06/11 10:31:27;;;;;;;7.88;4.95;;;34.80;99.90;;;;;;5035363;28;20485;-28
2023/06/11 10:34:01;;;;;;;6.13;4.78;;;34.90;99.90;;;;;;5037269;28;20058;-29
2023/06/11 10:36:32;;;;;;;5.70;4.50;;;35.00;99.90;;;;;;5036759;28;20050;-28
2023/06/11 10:39:12;;;;;;;6.25;4.47;;;35.20;99.90;;;;;;5036168;28;20045;-28
2023/06/11 10:41:39;;;;;;;6.63;4.20;;;35.30;99.90;;;;;;5036572;28;20128;-28
2023/06/11 10:44:06;;;;;;;6.13;4.38;;;35.20;99.90;;;;;;5035048;28;20050;-29
2023/06/11 10:46:43;;;;;;;7.53;4.65;;;35.60;99.90;;;;;;5035910;28;20052;-27
2023/06/11 10:49:14;;;;;;;6.78;4.40;;;35.40;99.90;;;;;;5035981;28;20124;-28
2023/06/11 10:51:40;;;;;;;5.70;4.45;;;35.30;99.90;;;;;;5035909;28;20481;-28
2023/06/11 10:54:07;;;;;;;5.47;4.65;;;35.00;99.90;;;;;;5034686;28;20042;-29
2023/06/11 10:56:37;;;;;;;8.80;4.82;;;35.40;99.90;;;;;;5018818;28;20037;-28
2023/06/11 10:59:07;;;;;;;6.55;4.07;;;35.60;99.90;;;;;;5035769;28;20501;-28
2023/06/11 11:01:33;;;;;;;7.32;4.35;;;35.60;99.90;;;;;;5035714;28;20072;-28
2023/06/11 11:04:01;;;;;;;6.13;4.80;;;35.60;99.90;;;;;;5018013;28;20497;-29
2023/06/11 11:06:30;;;;;;;5.63;4.25;;;35.80;99.90;;;;;;5035598;28;20049;-28
2023/06/11 11:08:56;;;;;;;9.13;3.83;;;35.70;99.90;;;;;;5034467;28;20041;-28
2023/06/11 11:11:22;;;;;;;6.47;4.28;;;35.50;99.90;;;;;;5035500;28;20045;-28
2023/06/11 11:13:50;;;;;;;19.33;4.55;;;35.80;99.90;;;;;;5035498;28;20444;-28
2023/06/11 11:16:18;;;;;;;7.93;3.90;;;35.90;99.90;;;;;;5035462;28;20052;-28
2023/06/11 11:18:49;;;;;;;6.82;4.45;;;36.00;99.90;;;;;;5035323;28;20129;-30
2023/06/11 11:21:15;;;;;;;4.13;3.72;;;36.30;99.90;;;;;;5035868;28;20049;-29
2023/06/11 11:23:42;;;;;;;6.47;4.20;;;36.30;99.90;;;;;;5035226;28;20050;-30
2023/06/11 11:26:07;;;;;;;4.68;4.15;;;36.30;99.90;;;;;;5035231;28;20064;-28
2023/06/11 11:28:34;;;;;;;5.95;4.05;;;36.30;99.90;;;;;;5035175;28;20067;-29
2023/06/11 11:31:00;;;;;;;6.60;4.13;;;36.30;99.90;;;;;;5035161;28;20456;-28
2023/06/11 11:33:27;;;;;;;5.18;4.07;;;36.30;99.90;;;;;;5035736;28;20068;-29
2023/06/11 11:35:53;;;;;;;4.65;4.20;;;36.00;99.90;;;;;;5035516;28;20136;-29
2023/06/11 11:38:20;;;;;;;4.68;4.20;;;36.40;99.90;;;;;;5035561;28;20129;-29
2023/06/11 11:40:46;;;;;;;4.93;3.78;;;36.50;99.90;;;;;;5034803;28;20042;-28
2023/06/11 11:43:14;;;;;;;7.05;3.67;;;36.40;99.90;;;;;;5034765;28;20187;-28
2023/06/11 11:45:48;;;;;;;5.10;3.75;;;36.40;99.90;;;;;;5035644;28;20045;-28
2023/06/11 11:48:15;;;;;;;4.40;4.00;;;36.60;99.90;;;;;;5035699;28;20060;-29
2023/06/11 11:50:41;;;;;;;4.72;3.53;;;36.60;99.90;;;;;;5033640;28;20049;-29
2023/06/11 11:53:13;;;;;;;4.15;3.40;;;36.50;99.90;;;;;;5035490;28;20053;-29
2023/06/11 11:55:41;;;;;;;9.45;3.65;;;36.40;99.90;;;;;;5035298;28;20136;-28
2023/06/11 11:58:12;;;;;;;4.40;3.25;;;36.60;99.90;;;;;;5034128;28;20469;-28
2023/06/11 12:00:48;;;;;;;5.97;3.72;;;36.70;99.90;;;;;;5033318;28;20051;-28
2023/06/11 12:03:19;;;;;;;8.15;3.75;;;36.10;99.90;;;;;;5034265;28;20426;-28
2023/06/11 12:05:59;;;;;;;5.80;3.67;;;36.20;99.90;;;;;;5034503;28;20053;-29
2023/06/11 12:08:29;;;;;;;6.35;4.13;;;36.40;99.90;;;;;;5034448;28;20088;-28
2023/06/11 12:10:56;;;;;;;7.70;3.45;;;36.40;99.90;;;;;;5034345;28;20053;-28
2023/06/11 12:13:22;;;;;;;6.28;3.40;;;36.40;99.90;;;;;;5034352;28;20448;-28
2023/06/11 12:15:48;;;;;;;5.40;3.90;;;36.40;99.90;;;;;;5034794;28;20041;-29
2023/06/11 12:18:16;;;;;;;5.85;3.67;;;36.70;99.90;;;;;;5034246;28;20053;-29
2023/06/11 12:20:42;;;;;;;4.50;3.40;;;36.80;99.90;;;;;;5032942;28;20046;-29
2023/06/11 12:23:08;;;;;;;5.13;3.50;;;36.80;99.90;;;;;;5034088;28;20140;-28
2023/06/11 12:25:34;;;;;;;4.13;3.67;;;36.80;99.90;;;;;;5032962;28;20053;-29
2023/06/11 12:28:03;;;;;;;4.40;3.83;;;36.90;99.90;;;;;;5033654;28;20373;-29
2023/06/11 12:30:30;;;;;;;5.65;3.75;;;36.80;99.90;;;;;;5033724;28;20469;-29
2023/06/11 12:32:58;;;;;;;4.55;3.63;;;36.80;99.90;;;;;;5034653;28;20054;-29
2023/06/11 12:35:26;;;;;;;5.57;3.55;;;36.70;99.90;;;;;;5034520;28;20451;-29
2023/06/11 12:37:52;;;;;;;5.60;3.72;;;36.30;99.90;;;;;;5033901;28;20052;-29
2023/06/11 12:40:18;;;;;;;6.05;4.03;;;36.10;99.90;;;;;;5033746;28;20045;-29
2023/06/11 12:42:44;;;;;;;4.10;3.70;;;36.30;99.90;;;;;;5032664;28;20037;-29